Time;durP1;ratioP1;P1;durP2;ratioP2;P2;SDS_P1;SDS_P2;PMS_P1;PMS_P2;Temp;Humidity;BMP_temperature;BMP_pressure;BME280_temperature;BME280_humidity;BME280_pressure;Samples;Min_cycle;Max_cycle;Signal;HPM_P1;HPM_P2
2022/11/09 05:03:14;;;;;;;44.72;21.48;;;;;;;10.68;94.74;100999.91;5602302;31;78719;-56
2022/11/09 05:06:32;;;;;;;45.67;22.55;;;;;;;10.68;94.74;100999.91;5590187;31;33370;-56
2022/11/09 05:09:34;;;;;;;40.22;22.45;;;;;;;10.29;95.81;100996.87;5603821;31;33607;-56
2022/11/09 05:12:36;;;;;;;48.30;23.62;;;;;;;10.39;95.14;100996.91;5602307;31;33806;-56
2022/11/09 05:15:42;;;;;;;40.03;22.35;;;;;;;10.32;95.15;100999.81;5603407;31;33615;-56
2022/11/09 05:18:45;;;;;;;42.78;22.70;;;;;;;10.31;96.04;100989.37;5586218;31;33305;-56
2022/11/09 05:21:47;;;;;;;42.92;22.23;;;;;;;10.40;95.97;100987.81;5586147;31;34242;-56
2022/11/09 05:24:50;;;;;;;43.42;21.95;;;;;;;10.41;95.02;100996.66;5603544;31;33660;-56
2022/11/09 05:27:53;;;;;;;40.03;21.25;;;;;;;10.34;94.60;100997.69;5597623;31;33742;-56
2022/11/09 05:30:55;;;;;;;40.33;21.40;;;;;;;10.37;95.44;100996.37;5583734;32;34048;-56
2022/11/09 05:33:58;;;;;;;39.97;22.48;;;;;;;10.39;94.88;100996.91;5582304;32;34273;-56
2022/11/09 05:37:00;;;;;;;33.28;19.73;;;;;;;10.45;94.13;101003.09;5582995;31;34415;-56
2022/11/09 05:40:06;;;;;;;38.38;20.60;;;;;;;10.50;93.66;101000.44;5578667;32;33683;-57
2022/11/09 05:43:09;;;;;;;36.05;20.60;;;;;;;10.49;93.46;100991.56;5577700;31;33600;-56
2022/11/09 05:46:13;;;;;;;38.53;20.90;;;;;;;10.61;93.59;100990.53;5579639;31;33680;-56
2022/11/09 05:49:16;;;;;;;38.72;21.12;;;;;;;10.53;93.74;100995.34;5581650;31;33292;-56
2022/11/09 05:52:19;;;;;;;34.25;19.70;;;;;;;10.32;94.94;101004.38;5579903;31;34325;-57
2022/11/09 05:55:21;;;;;;;35.50;19.02;;;;;;;10.32;94.84;101002.50;5580921;32;33854;-57
2022/11/09 05:58:26;;;;;;;33.33;19.95;;;;;;;10.35;94.85;101015.38;5582779;31;33570;-56
2022/11/09 06:01:28;;;;;;;34.63;18.75;;;;;;;10.39;94.53;101012.97;5582015;31;34370;-57
2022/11/09 06:04:31;;;;;;;36.83;19.52;;;;;;;10.50;92.94;101016.53;5581215;32;33728;-56
2022/11/09 06:07:34;;;;;;;34.28;19.10;;;;;;;10.53;91.96;101016.78;5579001;31;32532;-56
2022/11/09 06:10:38;;;;;;;34.55;19.48;;;;;;;10.37;93.65;101019.69;5573894;31;33844;-56
2022/11/09 06:13:40;;;;;;;32.10;18.52;;;;;;;10.45;92.61;101011.94;5571582;32;33679;-56
2022/11/09 06:16:43;;;;;;;35.63;18.60;;;;;;;10.45;92.89;101019.97;5566962;32;34288;-57
2022/11/09 06:19:45;;;;;;;33.25;19.45;;;;;;;10.47;92.09;101022.41;5568368;32;34292;-56
2022/11/09 06:23:00;;;;;;;31.90;17.52;;;;;;;10.48;91.93;101010.59;5568661;32;33595;-56
2022/11/09 06:26:09;;;;;;;32.42;18.92;;;;;;;10.41;91.92;101015.41;5568050;32;34349;-56
2022/11/09 06:29:12;;;;;;;35.03;19.27;;;;;;;10.43;92.29;101014.09;5568046;31;34443;-56
2022/11/09 06:32:14;;;;;;;35.25;20.00;;;;;;;10.33;92.98;101027.44;5568675;32;33152;-56
2022/11/09 06:35:16;;;;;;;39.38;20.50;;;;;;;10.30;94.22;101031.47;5566511;32;33333;-56
2022/11/09 06:38:19;;;;;;;35.38;19.50;;;;;;;10.44;92.83;101025.59;5567921;32;34268;-56
2022/11/09 06:41:21;;;;;;;31.98;17.80;;;;;;;10.34;92.35;101029.84;5568138;32;33808;-56
2022/11/09 06:44:25;;;;;;;33.53;18.67;;;;;;;10.28;92.56;101035.47;5568592;32;33750;-56
2022/11/09 06:47:29;;;;;;;31.60;18.50;;;;;;;10.34;92.18;101031.75;5567616;32;34318;-57
2022/11/09 06:50:33;;;;;;;39.22;18.70;;;;;;;10.31;92.41;101025.03;5568476;32;33563;-56
2022/11/09 06:53:36;;;;;;;30.05;17.52;;;;;;;10.26;93.21;101027.66;5566407;32;33859;-56
2022/11/09 06:56:39;;;;;;;32.83;16.85;;;;;;;10.15;92.45;101028.66;5557349;32;33625;-57
2022/11/09 06:59:43;;;;;;;29.42;16.77;;;;;;;10.18;92.77;101032.72;5567651;32;32235;-56
2022/11/09 07:02:46;;;;;;;36.38;18.02;;;;;;;10.24;91.96;101032.47;5565950;32;33196;-57
2022/11/09 07:05:50;;;;;;;30.25;15.90;;;;;;;10.10;92.71;101029.47;5569559;32;34253;-57
2022/11/09 07:08:57;;;;;;;32.03;17.87;;;;;;;10.10;91.69;101036.69;5562768;32;33708;-56
2022/11/09 07:12:02;;;;;;;32.30;16.58;;;;;;;9.95;93.55;101042.78;5548944;32;33659;-57
2022/11/09 07:15:08;;;;;;;;;;;;;;;10.05;93.22;101042.03;5565643;32;33260;-56
2022/11/09 07:18:12;;;;;;;31.65;17.27;;;;;;;10.10;94.74;101037.50;5564892;32;35520;-56
2022/11/09 07:21:16;;;;;;;32.35;18.77;;;;;;;10.26;91.81;101034.91;5566023;32;33672;-57
2022/11/09 07:24:19;;;;;;;32.15;17.52;;;;;;;10.20;92.67;101028.72;5565795;32;33677;-56
2022/11/09 07:27:22;;;;;;;28.92;16.58;;;;;;;10.29;95.27;101031.69;5568115;32;33654;-56
2022/11/09 07:30:29;;;;;;;33.80;18.02;;;;;;;10.51;95.18;101028.84;5563596;32;33697;-56
2022/11/09 07:33:34;;;;;;;32.88;17.98;;;;;;;10.60;95.71;101035.31;5566393;32;33755;-56
2022/11/09 07:36:38;;;;;;;32.38;18.25;;;;;;;10.60;92.95;101032.63;5560055;32;33678;-56
2022/11/09 07:39:40;;;;;;;32.60;18.20;;;;;;;10.54;94.91;101036.38;5564998;32;33734;-56
2022/11/09 07:42:44;;;;;;;32.80;19.55;;;;;;;10.48;95.12;101030.16;5566225;32;33563;-56
2022/11/09 07:45:49;;;;;;;33.63;19.50;;;;;;;10.51;93.61;101026.16;5568003;32;33696;-56
2022/11/09 07:48:56;;;;;;;32.65;19.45;;;;;;;10.56;93.16;101032.34;5568244;32;33735;-56
2022/11/09 07:52:00;;;;;;;40.25;19.70;;;;;;;10.62;91.68;101021.62;5565673;32;34426;-56
2022/11/09 07:55:05;;;;;;;40.05;19.20;;;;;;;10.48;92.28;101027.50;5562354;32;33598;-56
2022/11/09 07:58:16;;;;;;;40.20;21.50;;;;;;;10.54;96.85;101029.13;5565382;32;33287;-56
2022/11/09 08:01:20;;;;;;;38.03;19.87;;;;;;;10.60;92.27;101031.84;5565615;32;34056;-56
2022/11/09 08:04:25;;;;;;;36.58;20.80;;;;;;;10.54;92.78;101031.00;5566209;32;33568;-56
2022/11/09 08:07:29;;;;;;;45.65;21.17;;;;;;;10.52;95.47;101028.56;5564126;32;33628;-56
2022/11/09 08:10:34;;;;;;;39.05;20.23;;;;;;;10.50;94.28;101027.25;5564376;32;33774;-56
2022/11/09 08:13:39;;;;;;;40.95;21.75;;;;;;;10.64;96.57;101028.34;5561714;32;33470;-56
2022/11/09 08:16:47;;;;;;;41.63;21.95;;;;;;;10.68;93.12;101016.00;5553917;32;34424;-56
2022/11/09 08:19:50;;;;;;;46.63;23.20;;;;;;;10.54;94.93;101017.59;5566226;32;33601;-56
2022/11/09 08:22:53;;;;;;;35.90;20.00;;;;;;;10.65;96.08;101024.59;5567422;32;34260;-56
2022/11/09 08:26:05;;;;;;;38.10;19.87;;;;;;;10.78;96.19;101018.72;5566910;32;33713;-55
2022/11/09 08:29:09;;;;;;;43.35;22.05;;;;;;;10.96;97.63;101011.22;5560625;32;34425;-56
2022/11/09 08:32:13;;;;;;;42.00;22.92;;;;;;;10.77;92.49;101017.09;5561512;32;31872;-56
2022/11/09 08:35:20;;;;;;;44.63;23.85;;;;;;;10.62;94.53;101018.94;5561304;32;33745;-56
2022/11/09 08:38:22;;;;;;;46.88;23.10;;;;;;;10.66;95.13;101018.16;5565545;31;34235;-56
2022/11/09 08:41:25;;;;;;;49.20;24.83;;;;;;;10.76;94.01;101020.88;5548661;32;33602;-55
2022/11/09 08:44:27;;;;;;;49.22;23.87;;;;;;;10.82;97.14;101017.09;5547845;32;33659;-56
2022/11/09 08:47:29;;;;;;;44.33;24.25;;;;;;;10.80;94.67;101016.56;5564079;32;34432;-56
2022/11/09 08:50:34;;;;;;;41.45;24.42;;;;;;;10.91;95.33;101013.91;5563462;32;33207;-56
2022/11/09 08:53:36;;;;;;;47.85;24.17;;;;;;;10.91;94.05;101008.53;5560597;32;33662;-56
2022/11/09 08:56:38;;;;;;;43.83;24.17;;;;;;;11.00;93.77;101009.63;5564771;32;33762;-56
2022/11/09 08:59:41;;;;;;;42.88;23.70;;;;;;;10.95;96.26;101012.28;5564452;32;32854;-56
2022/11/09 09:02:43;;;;;;;40.08;23.20;;;;;;;11.15;95.13;101011.50;5562278;32;33590;-56
2022/11/09 09:05:45;;;;;;;40.03;21.48;;;;;;;11.21;93.58;101010.44;5562779;32;33686;-56
2022/11/09 09:08:47;;;;;;;40.17;23.15;;;;;;;11.04;96.36;101013.37;5555410;32;33708;-56
2022/11/09 09:11:52;;;;;;;42.03;24.10;;;;;;;11.03;94.76;101012.59;5562943;32;34317;-56
2022/11/09 09:14:54;;;;;;;36.58;23.70;;;;;;;10.99;94.69;101006.16;5562610;32;33740;-56
2022/11/09 09:18:01;;;;;;;35.83;21.65;;;;;;;11.10;95.30;101003.47;5565390;32;33574;-56
2022/11/09 09:21:08;;;;;;;39.65;22.27;;;;;;;11.07;97.69;101007.50;5563033;32;33633;-56
2022/11/09 09:24:10;;;;;;;39.70;22.00;;;;;;;11.11;95.96;101016.59;5566803;32;33721;-56
2022/11/09 09:27:12;;;;;;;41.30;23.45;;;;;;;11.11;96.36;101021.16;5563318;32;33931;-56
2022/11/09 09:30:15;;;;;;;38.38;22.35;;;;;;;11.25;93.31;101017.66;5563177;32;33635;-56
2022/11/09 09:33:17;;;;;;;45.60;24.60;;;;;;;11.20;98.50;101015.00;5565344;32;33441;-55
2022/11/09 09:36:21;;;;;;;44.20;23.75;;;;;;;11.19;94.65;101008.03;5564991;32;33594;-56
2022/11/09 09:39:24;;;;;;;40.95;23.90;;;;;;;11.32;93.72;101005.84;5566929;32;33758;-56
2022/11/09 09:42:34;;;;;;;45.28;24.02;;;;;;;11.27;94.61;101002.13;5562891;32;34302;-56
2022/11/09 09:45:48;;;;;;;46.97;25.50;;;;;;;11.33;94.10;101004.81;5558449;32;33052;-56
2022/11/09 09:48:59;;;;;;;46.08;25.45;;;;;;;11.32;92.94;100998.59;5563654;32;33784;-56
2022/11/09 09:52:24;;;;;;;47.13;25.83;;;;;;;11.27;92.82;100998.63;5568101;32;33827;-56
2022/11/09 09:55:37;;;;;;;47.03;26.40;;;;;;;11.36;92.99;100998.91;5567192;32;33706;-56
2022/11/09 09:58:48;;;;;;;42.35;24.75;;;;;;;11.41;92.14;100990.81;5568774;32;33232;-56
2022/11/09 10:01:51;;;;;;;40.70;26.77;;;;;;;11.60;96.69;100994.56;5567163;32;34467;-56
2022/11/09 10:04:57;;;;;;;51.40;26.90;;;;;;;11.61;91.79;100981.94;5562769;32;33675;-56
2022/11/09 10:08:11;;;;;;;49.38;27.77;;;;;;;11.53;91.37;100984.09;5566837;32;34080;-55
2022/11/09 10:11:42;;;;;;;50.58;26.90;;;;;;;11.60;94.33;100975.75;5565997;32;33836;-56
2022/11/09 10:15:15;;;;;;;49.67;28.80;;;;;;;11.64;91.28;100973.34;5562101;32;34323;-56
2022/11/09 10:18:23;;;;;;;44.97;26.37;;;;;;;11.62;92.04;100972.78;5566851;32;33665;-56
2022/11/09 10:21:44;;;;;;;48.83;27.70;;;;;;;11.73;94.33;100967.12;5557708;32;33938;-56
2022/11/09 10:24:54;;;;;;;42.28;26.15;;;;;;;11.78;90.50;100971.66;5565093;32;32092;-56
2022/11/09 10:28:25;;;;;;;42.25;25.55;;;;;;;11.79;93.27;100972.47;5564801;32;33195;-56
2022/11/09 10:31:32;;;;;;;50.20;28.77;;;;;;;11.85;95.08;100972.22;5563656;32;34397;-56
2022/11/09 10:34:41;;;;;;;47.03;27.70;;;;;;;11.67;92.77;100959.37;5564827;32;32143;-56
2022/11/09 10:37:48;;;;;;;45.65;27.58;;;;;;;11.65;91.67;100964.19;5565722;32;33615;-56
2022/11/09 10:41:05;;;;;;;50.45;28.62;;;;;;;11.66;92.94;100969.31;5565452;32;33365;-56
2022/11/09 10:44:26;;;;;;;47.87;29.97;;;;;;;11.66;91.12;100965.81;5564939;32;35385;-56
2022/11/09 10:47:48;;;;;;;51.55;29.00;;;;;;;11.62;90.77;100956.69;5565873;32;34590;-56
2022/11/09 10:51:45;;;;;;;50.60;28.08;;;;;;;11.64;92.04;100951.84;5568159;32;34639;-56
2022/11/09 10:55:22;;;;;;;52.90;29.58;;;;;;;11.74;93.33;100949.13;5545509;31;35194;-56
2022/11/09 10:58:50;;;;;;;51.78;31.15;;;;;;;11.81;95.78;100948.84;5568408;32;34684;-56
2022/11/09 11:02:24;;;;;;;50.33;30.40;;;;;;;11.91;91.86;100946.13;5566693;32;35471;-56
2022/11/09 11:05:57;;;;;;;47.58;28.77;;;;;;;11.90;92.96;100936.47;5554729;32;34574;-56
2022/11/09 11:09:22;;;;;;;49.42;30.67;;;;;;;11.91;90.45;100938.09;5567068;32;34495;-56
2022/11/09 11:12:45;;;;;;;50.33;30.62;;;;;;;11.68;91.57;100942.16;5566856;32;34669;-56
2022/11/09 11:16:26;;;;;;;48.13;27.23;;;;;;;11.70;91.92;100934.66;5557252;32;34521;-56
2022/11/09 11:19:46;;;;;;;48.85;29.33;;;;;;;11.88;94.18;100930.56;5563996;32;35038;-56
2022/11/09 11:23:22;;;;;;;49.13;29.60;;;;;;;12.06;91.40;100931.84;5567455;32;34275;-56
2022/11/09 11:26:58;;;;;;;52.38;30.70;;;;;;;12.01;93.52;100929.19;5549418;32;34605;-56
2022/11/09 11:30:27;;;;;;;55.42;30.48;;;;;;;12.03;92.94;100933.19;5566867;32;34893;-56
2022/11/09 11:33:48;;;;;;;52.35;31.65;;;;;;;12.07;92.19;100925.37;5566253;32;34604;-56
2022/11/09 11:37:36;;;;;;;56.55;31.70;;;;;;;11.96;91.48;100924.63;5564607;32;34626;-56
2022/11/09 11:41:09;;;;;;;51.15;29.83;;;;;;;11.88;90.98;100928.69;5566936;32;34594;-56
2022/11/09 11:44:45;;;;;;;56.60;32.75;;;;;;;11.84;95.36;100926.81;5558738;32;35447;-56
2022/11/09 11:48:57;;;;;;;63.53;33.22;;;;;;;11.91;90.97;100928.13;5566721;32;34488;-56
2022/11/09 11:52:38;;;;;;;57.00;32.72;;;;;;;11.96;92.51;100925.44;5567028;32;35467;-56
2022/11/09 11:56:21;;;;;;;65.12;34.08;;;;;;;11.91;92.43;100920.06;5558077;32;35434;-55
2022/11/09 11:59:56;;;;;;;57.33;32.78;;;;;;;11.96;94.32;100913.91;5566855;32;34537;-55
2022/11/09 12:03:38;;;;;;;58.33;32.92;;;;;;;11.99;93.84;100924.09;5565845;32;35353;-56
2022/11/09 12:07:21;;;;;;;56.15;32.60;;;;;;;11.98;93.52;100917.09;5567008;32;34586;-56
2022/11/09 12:11:25;;;;;;;64.45;33.45;;;;;;;12.03;94.37;100918.97;5563301;32;35597;-56
2022/11/09 12:15:18;;;;;;;58.25;33.45;;;;;;;11.94;93.05;100910.66;5509744;31;34433;-56
2022/11/09 12:18:56;;;;;;;57.15;34.08;;;;;;;11.88;91.84;100914.44;5560171;32;34093;-56
2022/11/09 12:22:53;;;;;;;61.83;35.53;;;;;;;11.86;92.08;100906.69;5565117;32;35441;-56
2022/11/09 12:26:51;;;;;;;54.13;32.47;;;;;;;11.74;91.99;100916.91;5555588;32;34678;-56
2022/11/09 12:31:15;;;;;;;51.05;31.02;;;;;;;11.80;96.74;100907.75;5560033;32;34463;-57
2022/11/09 12:34:42;;;;;;;56.22;32.72;;;;;;;11.98;94.48;100907.13;5566328;32;34675;-56
2022/11/09 12:38:28;;;;;;;62.70;35.08;;;;;;;11.88;96.20;100906.38;5565662;32;34553;-56
2022/11/09 12:41:52;;;;;;;61.22;34.20;;;;;;;11.95;95.38;100902.34;5567478;32;35518;-56
2022/11/09 12:45:21;;;;;;;64.47;34.67;;;;;;;12.09;94.57;100899.06;5565448;32;35484;-56
2022/11/09 12:48:42;;;;;;;61.05;35.55;;;;;;;12.15;93.17;100900.59;5560291;32;34517;-56
2022/11/09 12:52:05;;;;;;;59.10;35.60;;;;;;;11.92;93.21;100894.84;5564079;32;35386;-56
2022/11/09 12:55:41;;;;;;;64.87;35.63;;;;;;;11.92;92.08;100892.16;5558970;32;34471;-56
2022/11/09 12:59:33;;;;;;;66.53;37.90;;;;;;;11.88;94.13;100890.28;5563139;32;34499;-56
2022/11/09 13:02:57;;;;;;;59.60;35.58;;;;;;;11.91;94.92;100895.09;5556972;32;34535;-56
2022/11/09 13:06:22;;;;;;;55.80;34.83;;;;;;;11.84;92.07;100891.88;5567521;32;34626;-56
2022/11/09 13:09:42;;;;;;;60.93;35.57;;;;;;;11.83;91.72;100888.41;5564423;32;35389;-56
2022/11/09 13:13:21;;;;;;;66.72;35.80;;;;;;;11.79;93.89;100890.03;5566399;32;35053;-56
2022/11/09 13:16:42;;;;;;;63.15;36.70;;;;;;;11.91;93.75;100890.53;5564545;32;34638;-55
2022/11/09 13:20:49;;;;;;;67.30;38.50;;;;;;;11.92;94.90;100880.56;5564983;32;35211;-56
2022/11/09 13:24:28;;;;;;;52.28;31.40;;;;;;;12.02;95.96;100887.78;5566409;32;34481;-56
2022/11/09 13:27:49;;;;;;;64.57;36.85;;;;;;;12.18;94.52;100883.94;5563078;32;35414;-56
2022/11/09 13:31:10;;;;;;;61.92;35.72;;;;;;;12.09;91.66;100877.56;5570230;32;35337;-56
2022/11/09 13:34:38;;;;;;;65.03;35.88;;;;;;;12.00;91.77;100877.31;5570179;32;34589;-57
2022/11/09 13:37:59;;;;;;;61.20;37.38;;;;;;;11.97;94.90;100877.87;5566173;32;34486;-56
2022/11/09 13:41:29;;;;;;;57.80;35.53;;;;;;;11.89;93.85;100873.09;5566999;32;34580;-56
2022/11/09 13:44:50;;;;;;;59.50;33.90;;;;;;;12.06;97.42;100875.41;5570130;32;34551;-56
2022/11/09 13:48:46;;;;;;;59.90;33.47;;;;;;;12.07;95.07;100871.63;5569616;32;34227;-56
2022/11/09 13:52:45;;;;;;;66.15;37.55;;;;;;;12.15;95.04;100882.62;5568323;32;35263;-56
2022/11/09 13:56:36;;;;;;;57.38;34.30;;;;;;;11.93;94.87;100874.13;5567188;32;34483;-57
2022/11/09 13:59:58;;;;;;;60.33;35.90;;;;;;;12.01;94.85;100870.06;5569046;32;34597;-56
2022/11/09 14:03:28;;;;;;;61.90;37.15;;;;;;;12.02;94.04;100877.87;5570031;32;34464;-56
2022/11/09 14:07:00;;;;;;;57.20;34.47;;;;;;;12.08;93.07;100871.34;5570350;32;34602;-56
2022/11/09 14:11:10;;;;;;;64.47;37.75;;;;;;;12.16;97.95;100876.16;5570192;32;34747;-56
2022/11/09 14:14:53;;;;;;;67.37;36.55;;;;;;;11.94;92.19;100867.69;5569778;32;35366;-56
2022/11/09 14:18:18;;;;;;;62.40;37.38;;;;;;;11.87;93.09;100872.56;5569803;32;35344;-56
2022/11/09 14:21:55;;;;;;;63.85;36.45;;;;;;;11.85;94.41;100870.13;5569119;32;34550;-56
2022/11/09 14:25:18;;;;;;;65.35;38.58;;;;;;;11.86;94.78;100877.13;5569350;32;34576;-56
2022/11/09 14:28:38;;;;;;;69.37;39.65;;;;;;;11.97;96.03;100867.13;5569749;31;34593;-56
2022/11/09 14:32:01;;;;;;;66.25;36.97;;;;;;;11.97;93.13;100867.94;5569826;32;35476;-56
2022/11/09 14:35:34;;;;;;;69.78;37.05;;;;;;;11.90;94.73;100872.81;5569503;32;35429;-56
2022/11/09 14:38:56;;;;;;;65.40;38.03;;;;;;;11.87;94.45;100864.50;5569704;32;34605;-56
2022/11/09 14:42:21;;;;;;;73.15;36.15;;;;;;;11.88;94.38;100863.41;5569509;32;34565;-57
2022/11/09 14:45:52;;;;;;;63.50;38.72;;;;;;;11.83;97.50;100861.53;5569099;32;35448;-56
2022/11/09 14:49:12;;;;;;;62.65;36.60;;;;;;;11.90;94.17;100864.75;5566131;32;34499;-56
2022/11/09 14:52:34;;;;;;;63.92;38.72;;;;;;;11.96;92.98;100865.53;5549874;32;35445;-56
2022/11/09 14:55:58;;;;;;;63.28;38.15;;;;;;;11.89;94.09;100871.22;5550067;32;35417;-56
2022/11/09 14:59:30;;;;;;;66.15;37.47;;;;;;;11.78;93.75;100877.66;5549739;32;35385;-56
2022/11/09 15:02:51;;;;;;;74.03;40.25;;;;;;;11.88;93.96;100869.56;5549232;32;35395;-56
2022/11/09 15:06:16;;;;;;;72.68;40.53;;;;;;;11.84;94.01;100873.91;5550418;32;34502;-56
2022/11/09 15:09:46;;;;;;;77.45;42.05;;;;;;;11.90;94.54;100877.37;5550380;32;35366;-56
2022/11/09 15:13:07;;;;;;;74.78;40.40;;;;;;;11.91;94.85;100873.59;5550279;32;34571;-56
2022/11/09 15:16:30;;;;;;;69.15;37.50;;;;;;;11.94;94.26;100870.38;5550172;32;34530;-56
2022/11/09 15:19:53;;;;;;;74.12;42.22;;;;;;;11.90;98.02;100877.37;5566078;32;35431;-56
2022/11/09 15:23:37;;;;;;;78.50;39.92;;;;;;;11.88;96.29;100880.31;5569603;32;35422;-56
2022/11/09 15:26:58;;;;;;;69.55;38.90;;;;;;;11.91;98.38;100882.47;5569312;32;34502;-56
2022/11/09 15:31:04;;;;;;;69.95;39.55;;;;;;;12.02;94.79;100877.87;5569095;32;34615;-56
2022/11/09 15:34:30;;;;;;;74.10;41.05;;;;;;;11.96;100.00;100869.00;5562253;31;35718;-56
2022/11/09 15:37:52;;;;;;;;;;;;;;;12.05;97.53;100865.72;5569000;32;34586;-56
2022/11/09 15:41:18;;;;;;;76.07;40.20;;;;;;;11.98;94.18;100874.09;5569622;32;35619;-56
2022/11/09 15:44:39;;;;;;;73.07;40.58;;;;;;;12.04;99.34;100875.69;5568684;32;34722;-56
2022/11/09 15:48:00;;;;;;;71.57;39.33;;;;;;;11.97;96.14;100873.31;5568830;32;35318;-56
2022/11/09 15:51:21;;;;;;;76.20;42.10;;;;;;;12.01;96.33;100875.44;5569016;32;35360;-56
2022/11/09 15:54:41;;;;;;;73.93;41.28;;;;;;;12.02;96.15;100874.34;5569310;32;35464;-56
2022/11/09 15:58:11;;;;;;;70.97;38.72;;;;;;;11.84;95.07;100881.13;5569153;32;34540;-56
2022/11/09 16:01:32;;;;;;;71.40;43.42;;;;;;;11.81;97.40;100873.63;5569390;32;34534;-56
2022/11/09 16:04:53;;;;;;;70.82;40.53;;;;;;;11.72;95.95;100874.22;5568983;32;34568;-56
2022/11/09 16:08:13;;;;;;;75.15;42.67;;;;;;;11.73;97.10;100866.97;5569144;32;35382;-56
2022/11/09 16:11:34;;;;;;;78.93;42.83;;;;;;;11.77;100.00;100879.53;5569558;32;34519;-56
2022/11/09 16:14:54;;;;;;;78.20;42.70;;;;;;;11.83;95.69;100871.47;5569103;32;35973;-56
2022/11/09 16:18:16;;;;;;;80.28;40.05;;;;;;;11.83;98.00;100882.22;5569005;32;34617;-56
2022/11/09 16:21:45;;;;;;;72.47;38.83;;;;;;;11.77;98.05;100874.19;5569480;32;34538;-56
2022/11/09 16:25:05;;;;;;;81.93;43.92;;;;;;;11.83;99.79;100884.91;5569165;32;34586;-56
2022/11/09 16:28:26;;;;;;;74.45;38.85;;;;;;;11.75;97.71;100875.53;5568884;32;34591;-56
2022/11/09 16:31:47;;;;;;;76.62;41.13;;;;;;;11.93;100.00;100874.13;5569120;32;35413;-57
2022/11/09 16:35:11;;;;;;;75.65;41.72;;;;;;;11.89;97.24;100879.25;5569038;32;35387;-57
2022/11/09 16:38:52;;;;;;;76.68;41.22;;;;;;;11.71;96.32;100874.47;5569033;32;34639;-57
2022/11/09 16:42:16;;;;;;;75.70;41.10;;;;;;;11.64;95.81;100882.03;5569104;32;34559;-57
2022/11/09 16:45:46;;;;;;;78.68;44.97;;;;;;;11.68;96.29;100872.34;5568831;32;35376;-57
2022/11/09 16:49:06;;;;;;;85.82;46.33;;;;;;;11.71;98.32;100875.28;5568996;32;35228;-56
